createdAt,value
2017-12-19T00:01:26.847Z,1.80
2017-12-19T00:03:53.434Z,1.80
2017-12-19T00:06:20.820Z,1.80
2017-12-19T00:08:47.634Z,1.70
2017-12-19T00:11:14.151Z,1.70
2017-12-19T00:13:40.759Z,1.70
2017-12-19T00:16:08.541Z,1.70
2017-12-19T00:18:35.112Z,1.60
2017-12-19T00:21:01.712Z,1.70
2017-12-19T00:23:28.249Z,1.70
2017-12-19T00:25:55.798Z,1.70
2017-12-19T00:28:22.562Z,1.60
2017-12-19T00:30:49.887Z,1.70
2017-12-19T00:33:16.460Z,1.70
2017-12-19T00:35:43.041Z,1.70
2017-12-19T00:38:09.648Z,1.70
2017-12-19T00:40:36.232Z,1.80
2017-12-19T00:43:06.863Z,1.80
2017-12-19T00:45:33.399Z,1.70
2017-12-19T00:50:35.182Z,1.80
2017-12-19T00:53:01.914Z,1.80
2017-12-19T00:55:28.759Z,1.90
2017-12-19T00:57:55.424Z,1.90
2017-12-19T01:00:25.838Z,1.90
2017-12-19T01:02:53.229Z,2.00
2017-12-19T01:07:52.125Z,2.00
2017-12-19T01:10:18.689Z,2.00
2017-12-19T01:12:46.006Z,2.00
2017-12-19T01:15:12.566Z,2.00
2017-12-19T01:17:39.153Z,2.00
2017-12-19T01:20:06.268Z,2.00
2017-12-19T01:22:34.107Z,1.90
2017-12-19T01:25:03.569Z,1.90
2017-12-19T01:27:30.139Z,1.80
2017-12-19T01:29:56.667Z,1.90
2017-12-19T01:32:24.125Z,1.90
2017-12-19T01:34:50.662Z,1.90
2017-12-19T01:37:17.451Z,1.90
2017-12-19T01:39:44.405Z,1.90
2017-12-19T01:42:11.015Z,1.90
2017-12-19T01:44:37.839Z,1.80
2017-12-19T01:47:04.516Z,1.90
2017-12-19T01:49:32.007Z,2.00
2017-12-19T01:51:58.952Z,2.00
2017-12-19T01:54:25.955Z,2.00
2017-12-19T01:56:53.944Z,2.00
2017-12-19T01:59:20.809Z,2.10
2017-12-19T02:01:47.375Z,2.10
2017-12-19T02:04:14.435Z,2.10
2017-12-19T02:06:41.083Z,2.10
2017-12-19T02:09:08.513Z,2.10
2017-12-19T02:11:36.279Z,2.10
2017-12-19T02:14:02.883Z,2.10
2017-12-19T02:16:30.221Z,2.20
2017-12-19T02:18:58.095Z,2.20
2017-12-19T02:21:26.830Z,2.30
2017-12-19T02:23:54.375Z,2.20
2017-12-19T02:26:23.033Z,2.30
2017-12-19T02:28:49.603Z,2.40
2017-12-19T02:31:16.177Z,2.40
2017-12-19T02:33:42.789Z,2.40
2017-12-19T02:36:09.799Z,2.40
2017-12-19T02:38:36.372Z,2.40
2017-12-19T02:41:02.960Z,2.50
2017-12-19T02:43:29.503Z,2.50
2017-12-19T02:45:56.053Z,2.60
2017-12-19T02:48:23.473Z,2.50
2017-12-19T02:50:51.006Z,2.50
2017-12-19T02:53:17.573Z,2.50
2017-12-19T02:55:44.225Z,2.50
2017-12-19T02:58:10.808Z,2.50
2017-12-19T03:00:37.442Z,2.60
2017-12-19T03:03:05.028Z,2.60
2017-12-19T03:05:31.950Z,2.70
2017-12-19T03:07:58.508Z,2.80
2017-12-19T03:10:25.106Z,2.80
2017-12-19T03:12:53.457Z,2.80
2017-12-19T03:15:20.072Z,2.80
2017-12-19T03:17:47.827Z,2.80
2017-12-19T03:20:15.214Z,2.70
2017-12-19T03:22:41.793Z,2.70
2017-12-19T03:25:08.766Z,2.70
2017-12-19T03:27:35.364Z,2.70
2017-12-19T03:30:03.963Z,2.70
2017-12-19T03:32:31.306Z,2.80
2017-12-19T03:34:58.067Z,2.80
2017-12-19T03:37:24.840Z,2.80
2017-12-19T03:39:51.578Z,2.70
2017-12-19T03:42:18.943Z,2.70
2017-12-19T03:44:46.195Z,2.70
2017-12-19T03:47:14.328Z,2.70
2017-12-19T03:49:41.060Z,2.60
2017-12-19T03:52:08.279Z,2.50
2017-12-19T03:54:34.830Z,2.50
2017-12-19T03:57:01.343Z,2.50
2017-12-19T03:59:27.911Z,2.40
2017-12-19T04:01:55.259Z,2.50
2017-12-19T04:04:23.401Z,2.60
2017-12-19T04:06:50.013Z,2.60
2017-12-19T04:09:17.579Z,2.60
2017-12-19T04:11:44.277Z,2.70
2017-12-19T04:14:11.732Z,2.60
2017-12-19T04:16:38.529Z,2.60
2017-12-19T04:19:05.091Z,2.70
2017-12-19T04:21:31.698Z,2.70
2017-12-19T04:23:58.366Z,2.90
2017-12-19T04:26:25.896Z,3.10
2017-12-19T04:28:53.234Z,3.20
2017-12-19T04:31:19.843Z,3.20
2017-12-19T04:33:46.397Z,3.30
2017-12-19T04:36:12.979Z,3.30
2017-12-19T04:38:39.755Z,3.30
2017-12-19T04:41:06.494Z,3.40
2017-12-19T04:43:33.176Z,3.40
2017-12-19T04:46:00.855Z,3.40
2017-12-19T04:48:27.534Z,3.40
2017-12-19T04:50:54.265Z,3.40
2017-12-19T04:53:22.426Z,3.40
2017-12-19T04:55:49.734Z,3.40
2017-12-19T04:58:16.974Z,3.40
2017-12-19T05:00:44.905Z,3.30
2017-12-19T05:03:11.437Z,3.30
2017-12-19T05:05:37.929Z,3.30
2017-12-19T05:08:05.816Z,3.20
2017-12-19T05:10:33.042Z,3.20
2017-12-19T05:13:00.096Z,3.20
2017-12-19T05:15:26.831Z,3.20
2017-12-19T05:17:54.275Z,3.30
2017-12-19T05:20:22.228Z,3.20
2017-12-19T05:22:49.219Z,3.30
2017-12-19T05:25:15.760Z,3.30
2017-12-19T05:27:42.281Z,3.30
2017-12-19T05:30:08.884Z,3.40
2017-12-19T05:32:35.455Z,3.40
2017-12-19T05:35:02.661Z,3.40
2017-12-19T05:37:29.505Z,3.30
2017-12-19T05:39:56.380Z,3.30
2017-12-19T05:42:23.607Z,3.40
2017-12-19T05:44:56.061Z,3.40
2017-12-19T05:47:25.653Z,3.40
2017-12-19T05:49:52.586Z,3.40
2017-12-19T05:52:20.844Z,3.40
2017-12-19T05:54:51.610Z,3.40
2017-12-19T05:57:18.981Z,3.50
2017-12-19T05:59:46.599Z,3.50
2017-12-19T06:02:14.401Z,3.50
2017-12-19T06:04:42.427Z,3.60
2017-12-19T06:07:09.075Z,3.50
2017-12-19T06:09:37.202Z,3.60
2017-12-19T06:12:04.276Z,3.60
2017-12-19T06:14:31.635Z,3.60
2017-12-19T06:16:58.115Z,3.70
2017-12-19T06:19:24.732Z,3.70
2017-12-19T06:21:52.655Z,3.70
2017-12-19T06:24:19.344Z,3.70
2017-12-19T06:26:46.424Z,3.80
2017-12-19T06:29:14.014Z,3.80
2017-12-19T06:31:41.802Z,3.80
2017-12-19T06:34:08.759Z,3.90
2017-12-19T06:36:36.220Z,3.90
2017-12-19T06:39:02.823Z,4.00
2017-12-19T06:41:30.514Z,4.10
2017-12-19T06:43:57.150Z,4.10
2017-12-19T06:46:23.748Z,4.20
2017-12-19T06:48:50.278Z,4.20
2017-12-19T06:51:16.883Z,4.20
2017-12-19T06:53:43.488Z,4.30
2017-12-19T06:56:12.428Z,4.30
2017-12-19T06:58:39.121Z,4.20
2017-12-19T07:01:05.715Z,4.30
2017-12-19T07:03:33.059Z,4.40
2017-12-19T07:06:00.753Z,4.40
2017-12-19T07:08:27.628Z,4.40
2017-12-19T07:10:54.691Z,4.50
2017-12-19T07:13:21.506Z,4.50
2017-12-19T07:15:49.903Z,4.50
2017-12-19T07:18:16.518Z,4.50
2017-12-19T07:20:43.247Z,4.50
2017-12-19T07:23:09.852Z,4.50
2017-12-19T07:25:36.513Z,4.50
2017-12-19T07:28:03.631Z,4.50
2017-12-19T07:30:32.035Z,4.60
2017-12-19T07:32:59.043Z,4.60
2017-12-19T07:35:26.273Z,4.60
2017-12-19T07:37:53.151Z,4.60
2017-12-19T07:40:19.710Z,4.60
2017-12-19T07:42:46.344Z,4.60
2017-12-19T07:45:13.244Z,4.60
2017-12-19T07:47:40.542Z,4.70
2017-12-19T07:50:07.208Z,4.80
2017-12-19T07:52:34.740Z,4.70
2017-12-19T07:55:01.364Z,4.70
2017-12-19T07:57:28.532Z,4.90
2017-12-19T07:59:55.798Z,4.90
2017-12-19T08:02:23.150Z,4.90
2017-12-19T08:04:49.854Z,4.90
2017-12-19T08:07:17.349Z,5.00
2017-12-19T08:09:43.941Z,4.90
2017-12-19T08:12:11.294Z,4.90
2017-12-19T08:14:38.158Z,4.90
2017-12-19T08:17:04.879Z,4.90
2017-12-19T08:19:31.635Z,4.70
2017-12-19T08:21:59.339Z,4.70
2017-12-19T08:24:26.700Z,4.70
2017-12-19T08:26:53.388Z,4.60
2017-12-19T08:29:19.972Z,4.70
2017-12-19T08:31:47.352Z,4.70
2017-12-19T08:34:14.787Z,4.70
2017-12-19T08:36:42.099Z,4.60
2017-12-19T08:39:08.702Z,4.60
2017-12-19T08:41:35.768Z,4.70
2017-12-19T08:44:02.963Z,4.70
2017-12-19T08:46:29.705Z,4.70
2017-12-19T08:48:56.594Z,4.60
2017-12-19T08:51:23.414Z,4.60
2017-12-19T08:53:50.031Z,4.60
2017-12-19T08:56:22.836Z,4.60
2017-12-19T08:58:51.277Z,4.60
2017-12-19T09:01:21.114Z,4.60
2017-12-19T09:03:47.607Z,4.70
2017-12-19T09:06:14.136Z,4.60
2017-12-19T09:08:41.011Z,4.60
2017-12-19T09:11:07.757Z,4.60
2017-12-19T09:13:34.297Z,4.60
2017-12-19T09:16:00.951Z,4.60
2017-12-19T09:18:27.678Z,4.70
2017-12-19T09:20:54.371Z,4.70
2017-12-19T09:23:20.903Z,4.70
2017-12-19T09:25:47.643Z,4.70
2017-12-19T09:28:14.191Z,4.70
2017-12-19T09:30:41.474Z,4.70
2017-12-19T09:33:07.964Z,4.70
2017-12-19T09:35:34.456Z,4.70
2017-12-19T09:38:01.025Z,4.80
2017-12-19T09:40:27.571Z,4.70
2017-12-19T09:42:54.144Z,4.80
2017-12-19T09:45:21.250Z,4.80
2017-12-19T09:47:47.949Z,4.80
2017-12-19T09:50:14.436Z,4.80
2017-12-19T09:52:42.105Z,4.80
2017-12-19T09:55:11.636Z,4.90
2017-12-19T09:57:38.936Z,5.00
2017-12-19T10:00:05.744Z,5.00
2017-12-19T10:02:32.747Z,5.00
2017-12-19T10:04:59.231Z,5.10
2017-12-19T10:07:25.727Z,5.10
2017-12-19T10:09:52.205Z,5.10
2017-12-19T10:12:19.489Z,5.20
2017-12-19T10:14:46.070Z,5.20
2017-12-19T10:17:13.360Z,5.30
2017-12-19T10:19:39.953Z,5.20
2017-12-19T10:22:06.517Z,5.30
2017-12-19T10:24:33.794Z,5.30
2017-12-19T10:27:00.494Z,5.30
2017-12-19T10:29:27.098Z,5.30
2017-12-19T10:31:53.880Z,5.40
2017-12-19T10:34:20.434Z,5.20
2017-12-19T10:36:47.600Z,5.10
2017-12-19T10:39:14.375Z,5.10
2017-12-19T10:41:41.118Z,5.10
2017-12-19T10:44:09.657Z,5.20
2017-12-19T10:46:36.935Z,5.20
2017-12-19T10:49:03.489Z,5.10
2017-12-19T10:51:30.067Z,5.10
2017-12-19T10:53:57.304Z,5.20
2017-12-19T10:56:23.849Z,5.20
2017-12-19T10:58:51.138Z,5.20
2017-12-19T11:01:18.476Z,5.20
2017-12-19T11:03:45.122Z,5.20
2017-12-19T11:06:11.815Z,5.20
2017-12-19T11:08:39.077Z,5.10
2017-12-19T11:11:05.912Z,5.10
2017-12-19T11:13:32.492Z,5.10
2017-12-19T11:15:59.201Z,5.10
2017-12-19T11:18:26.477Z,5.20
2017-12-19T11:20:53.744Z,5.10
2017-12-19T11:23:20.419Z,5.20
2017-12-19T11:25:46.945Z,5.20
2017-12-19T11:28:13.503Z,5.10
2017-12-19T11:30:40.036Z,5.10
2017-12-19T11:33:06.611Z,5.00
2017-12-19T11:35:36.965Z,5.10
2017-12-19T11:38:03.626Z,5.10
2017-12-19T11:40:30.250Z,5.10
2017-12-19T11:42:56.813Z,5.10
2017-12-19T11:45:23.375Z,5.10
2017-12-19T11:47:50.624Z,5.10
2017-12-19T11:50:18.055Z,5.00
2017-12-19T11:52:44.603Z,5.00
2017-12-19T11:55:11.266Z,5.00
2017-12-19T11:57:37.871Z,5.00
2017-12-19T12:00:04.536Z,5.00
2017-12-19T12:02:31.095Z,5.00
2017-12-19T12:04:58.859Z,5.00
2017-12-19T12:07:25.431Z,4.90
2017-12-19T12:09:52.207Z,4.90
2017-12-19T12:12:19.092Z,4.90
2017-12-19T12:14:49.028Z,4.80
2017-12-19T12:17:16.890Z,4.80
2017-12-19T12:19:43.891Z,4.80
2017-12-19T12:22:10.548Z,4.80
2017-12-19T12:24:37.129Z,4.80
2017-12-19T12:27:04.495Z,4.80
2017-12-19T12:29:31.212Z,4.80
2017-12-19T12:31:57.981Z,4.80
2017-12-19T12:34:25.158Z,4.80
2017-12-19T12:36:51.751Z,4.80
2017-12-19T12:39:18.603Z,4.70
2017-12-19T12:41:46.091Z,4.70
2017-12-19T12:44:12.920Z,4.70
2017-12-19T12:46:40.327Z,4.70
2017-12-19T12:49:07.415Z,4.70
2017-12-19T12:51:34.068Z,4.70
2017-12-19T12:54:00.925Z,4.70
2017-12-19T12:56:27.658Z,4.60
2017-12-19T12:58:55.046Z,4.70
2017-12-19T13:01:21.878Z,4.60
2017-12-19T13:03:48.771Z,4.70
2017-12-19T13:06:15.526Z,4.70
2017-12-19T13:08:43.438Z,4.60
2017-12-19T13:11:10.857Z,4.60
2017-12-19T13:13:37.494Z,4.50
2017-12-19T13:16:05.521Z,4.50
2017-12-19T13:18:32.594Z,4.50
2017-12-19T13:20:59.120Z,4.50
2017-12-19T13:23:25.567Z,4.50
2017-12-19T13:25:52.096Z,4.50
2017-12-19T13:28:18.829Z,4.50
2017-12-19T13:30:45.943Z,4.60
2017-12-19T13:33:13.406Z,4.50
2017-12-19T13:35:39.974Z,4.50
2017-12-19T13:38:06.594Z,4.50
2017-12-19T13:40:33.240Z,4.50
2017-12-19T13:42:59.808Z,4.50
2017-12-19T13:45:26.336Z,4.50
2017-12-19T13:47:53.357Z,4.50
2017-12-19T13:50:20.556Z,4.60
2017-12-19T13:52:47.141Z,4.50
2017-12-19T13:55:14.532Z,4.40
2017-12-19T13:57:41.673Z,4.40
2017-12-19T14:00:08.378Z,4.40
2017-12-19T14:02:34.948Z,4.40
2017-12-19T14:05:01.544Z,4.40
2017-12-19T14:07:28.386Z,4.40
2017-12-19T14:09:55.128Z,4.50
2017-12-19T14:12:22.414Z,4.50
2017-12-19T14:14:48.953Z,4.50
2017-12-19T14:17:15.691Z,4.50
2017-12-19T14:19:42.921Z,4.50
2017-12-19T14:22:09.462Z,4.50
2017-12-19T14:24:36.050Z,4.40
2017-12-19T14:27:05.455Z,4.40
2017-12-19T14:29:31.946Z,4.40
2017-12-19T14:31:59.353Z,4.40
2017-12-19T14:34:25.814Z,4.50
2017-12-19T14:36:52.329Z,4.40
2017-12-19T14:39:20.055Z,4.30
2017-12-19T14:41:46.704Z,4.30
2017-12-19T14:44:13.229Z,4.30
2017-12-19T14:46:40.176Z,4.30
2017-12-19T14:49:07.098Z,4.20
2017-12-19T14:51:33.715Z,4.20
2017-12-19T14:54:00.276Z,4.30
2017-12-19T14:56:27.023Z,4.30
2017-12-19T14:58:54.461Z,4.30
2017-12-19T15:01:21.269Z,4.20
2017-12-19T15:03:47.978Z,4.20
2017-12-19T15:06:15.718Z,4.40
2017-12-19T15:08:42.973Z,4.40
2017-12-19T15:11:09.726Z,4.30
2017-12-19T15:13:37.046Z,4.40
2017-12-19T15:16:03.586Z,4.40
2017-12-19T15:18:30.139Z,4.40
2017-12-19T15:20:56.749Z,4.40
2017-12-19T15:23:24.544Z,4.40
2017-12-19T15:25:51.150Z,4.40
2017-12-19T15:28:17.908Z,4.40
2017-12-19T15:30:44.710Z,4.30
2017-12-19T15:33:12.374Z,4.40
2017-12-19T15:35:40.269Z,4.40
2017-12-19T15:38:06.907Z,4.50
2017-12-19T15:40:34.407Z,4.50
2017-12-19T15:43:01.074Z,4.50
2017-12-19T15:45:28.102Z,4.40
2017-12-19T15:47:56.411Z,4.40
2017-12-19T15:50:25.453Z,4.30
2017-12-19T15:52:52.037Z,4.30
2017-12-19T15:55:21.566Z,4.20
2017-12-19T15:57:48.480Z,4.30
2017-12-19T16:00:15.254Z,4.30
2017-12-19T16:02:42.448Z,4.20
2017-12-19T16:05:08.975Z,4.20
2017-12-19T16:07:36.470Z,4.20
2017-12-19T16:10:02.984Z,4.20
2017-12-19T16:12:29.559Z,4.30
2017-12-19T16:14:56.276Z,4.30
2017-12-19T16:17:23.691Z,4.30
2017-12-19T16:19:51.116Z,4.30
2017-12-19T16:22:18.211Z,4.30
2017-12-19T16:24:44.844Z,4.30
2017-12-19T16:27:12.198Z,4.30
2017-12-19T16:29:38.767Z,4.30
2017-12-19T16:32:06.169Z,4.30
2017-12-19T16:34:35.016Z,4.20
2017-12-19T16:37:01.610Z,4.20
2017-12-19T16:39:28.248Z,4.20
2017-12-19T16:41:54.900Z,4.30
2017-12-19T16:44:21.551Z,4.30
2017-12-19T16:46:48.908Z,4.20
2017-12-19T16:49:15.418Z,4.20
2017-12-19T16:51:44.069Z,4.20
2017-12-19T16:54:12.285Z,4.20
2017-12-19T16:56:39.433Z,4.20
2017-12-19T16:59:07.041Z,4.20
2017-12-19T17:01:33.956Z,4.10
2017-12-19T17:06:35.062Z,4.10
2017-12-19T17:09:04.048Z,4.10
2017-12-19T17:11:31.553Z,4.10
2017-12-19T17:13:59.720Z,4.20
2017-12-19T17:16:26.352Z,4.20
2017-12-19T17:18:53.767Z,4.20
2017-12-19T17:21:20.459Z,4.20
2017-12-19T17:23:47.976Z,4.10
2017-12-19T17:26:14.574Z,4.10
2017-12-19T17:28:42.275Z,4.10
2017-12-19T17:31:08.982Z,4.10
2017-12-19T17:33:36.080Z,4.20
2017-12-19T17:36:02.897Z,4.20
2017-12-19T17:38:29.521Z,4.20
2017-12-19T17:40:56.793Z,4.20
2017-12-19T17:43:23.381Z,4.10
2017-12-19T17:45:50.002Z,4.20
2017-12-19T17:50:53.246Z,4.10
2017-12-19T17:53:21.367Z,4.10
2017-12-19T17:55:48.188Z,4.10
2017-12-19T17:58:14.728Z,4.10
2017-12-19T18:00:41.888Z,4.10
2017-12-19T18:03:08.514Z,4.10
2017-12-19T18:05:35.707Z,4.10
2017-12-19T18:08:02.214Z,4.10
2017-12-19T18:10:28.934Z,4.10
2017-12-19T18:12:56.162Z,4.10
2017-12-19T18:15:22.780Z,4.10
2017-12-19T18:17:49.509Z,4.00
2017-12-19T18:20:16.603Z,4.00
2017-12-19T18:22:43.543Z,4.00
2017-12-19T18:25:10.455Z,4.10
2017-12-19T18:27:38.509Z,4.10
2017-12-19T18:30:05.708Z,4.20
2017-12-19T18:32:33.670Z,4.20
2017-12-19T18:35:01.100Z,4.20
2017-12-19T18:37:28.103Z,4.10
2017-12-19T18:39:55.134Z,4.10
2017-12-19T18:42:22.642Z,4.10
2017-12-19T18:44:49.459Z,4.10
2017-12-19T18:47:16.637Z,4.10
2017-12-19T18:49:43.672Z,4.10
2017-12-19T18:52:10.594Z,4.10
2017-12-19T18:54:38.105Z,4.10
2017-12-19T18:57:05.820Z,4.10
2017-12-19T18:59:32.587Z,4.10
2017-12-19T19:01:59.969Z,4.20
2017-12-19T19:04:27.816Z,4.10
2017-12-19T19:06:55.498Z,4.10
2017-12-19T19:09:22.730Z,4.10
2017-12-19T19:11:51.669Z,4.10
2017-12-19T19:14:18.910Z,4.10
2017-12-19T19:16:47.601Z,4.10
2017-12-19T19:19:14.701Z,4.10
2017-12-19T19:21:42.942Z,4.00
2017-12-19T19:24:09.597Z,4.00
2017-12-19T19:26:36.720Z,4.00
2017-12-19T19:29:03.849Z,4.00
2017-12-19T19:31:32.181Z,3.90
2017-12-19T19:33:59.807Z,4.00
2017-12-19T19:36:28.604Z,4.00
2017-12-19T19:38:56.419Z,4.00
2017-12-19T19:41:24.096Z,4.00
2017-12-19T19:43:51.277Z,4.00
2017-12-19T19:46:18.521Z,4.00
2017-12-19T19:48:46.036Z,4.00
2017-12-19T19:51:12.877Z,4.00
2017-12-19T19:53:39.750Z,4.10
2017-12-19T19:56:07.610Z,4.00
2017-12-19T19:58:34.304Z,4.00
2017-12-19T20:01:01.181Z,4.00
2017-12-19T20:03:28.426Z,4.00
2017-12-19T20:05:55.488Z,4.00
2017-12-19T20:08:22.831Z,4.00
2017-12-19T20:10:50.264Z,4.00
2017-12-19T20:13:18.527Z,4.00
2017-12-19T20:15:45.844Z,4.00
2017-12-19T20:18:12.940Z,4.10
2017-12-19T20:20:41.596Z,4.10
2017-12-19T20:23:08.840Z,4.00
2017-12-19T20:25:35.684Z,4.10
2017-12-19T20:28:02.451Z,4.10
2017-12-19T20:30:29.029Z,4.10
2017-12-19T20:32:55.628Z,4.00
2017-12-19T20:35:22.167Z,4.00
2017-12-19T20:37:49.490Z,4.00
2017-12-19T20:40:16.314Z,4.00
2017-12-19T20:42:42.854Z,3.90
2017-12-19T20:45:14.292Z,4.00
2017-12-19T20:47:40.880Z,4.00
2017-12-19T20:50:08.097Z,4.00
2017-12-19T20:52:34.930Z,4.00
2017-12-19T20:55:01.838Z,4.00
2017-12-19T20:57:28.278Z,4.00
2017-12-19T20:59:55.476Z,4.00
2017-12-19T21:02:21.936Z,4.00
2017-12-19T21:04:48.372Z,4.00
2017-12-19T21:07:14.779Z,4.00
2017-12-19T21:09:41.289Z,4.10
2017-12-19T21:12:07.750Z,4.00
2017-12-19T21:14:34.374Z,4.00
2017-12-19T21:17:01.531Z,3.90
2017-12-19T21:19:28.105Z,3.90
2017-12-19T21:21:54.791Z,4.00
2017-12-19T21:24:21.524Z,3.90
2017-12-19T21:26:49.302Z,3.90
2017-12-19T21:29:15.913Z,3.90
2017-12-19T21:31:43.260Z,3.90
2017-12-19T21:34:09.954Z,3.90
2017-12-19T21:36:39.617Z,3.90
2017-12-19T21:39:06.203Z,3.90
2017-12-19T21:41:32.664Z,3.90
2017-12-19T21:43:59.232Z,3.90
2017-12-19T21:46:25.871Z,4.00
2017-12-19T21:48:52.426Z,3.90
2017-12-19T21:51:20.379Z,3.90
2017-12-19T21:53:48.003Z,3.90
2017-12-19T21:56:14.488Z,3.80
2017-12-19T21:58:41.846Z,3.80
2017-12-19T22:01:08.503Z,3.80
2017-12-19T22:03:36.473Z,3.80
2017-12-19T22:06:04.805Z,3.80
2017-12-19T22:08:31.666Z,3.70
2017-12-19T22:10:59.092Z,3.70
2017-12-19T22:13:25.622Z,3.70
2017-12-19T22:15:52.196Z,3.80
2017-12-19T22:18:18.656Z,3.70
2017-12-19T22:20:46.014Z,3.60
2017-12-19T22:23:12.940Z,3.50
2017-12-19T22:25:39.492Z,3.50
2017-12-19T22:28:06.108Z,3.50
2017-12-19T22:30:32.957Z,3.60
2017-12-19T22:33:00.185Z,3.70
2017-12-19T22:35:26.762Z,3.70
2017-12-19T22:37:53.351Z,3.70
2017-12-19T22:40:20.063Z,3.70
2017-12-19T22:42:47.566Z,3.60
2017-12-19T22:45:15.088Z,3.60
2017-12-19T22:47:41.616Z,3.60
2017-12-19T22:50:08.965Z,3.60
2017-12-19T22:52:35.540Z,3.60
2017-12-19T22:55:02.090Z,3.60
2017-12-19T22:57:28.664Z,3.60
2017-12-19T22:59:56.011Z,3.60
2017-12-19T23:02:22.608Z,3.60
2017-12-19T23:04:49.496Z,3.60
2017-12-19T23:07:16.077Z,3.60
2017-12-19T23:09:42.542Z,3.60
2017-12-19T23:12:09.117Z,3.60
2017-12-19T23:14:36.717Z,3.60
2017-12-19T23:17:03.876Z,3.50
2017-12-19T23:19:30.405Z,3.60
2017-12-19T23:21:56.995Z,3.50
2017-12-19T23:24:23.610Z,3.50
2017-12-19T23:26:50.179Z,3.60
2017-12-19T23:29:18.132Z,3.60
2017-12-19T23:31:44.782Z,3.60
2017-12-19T23:34:11.424Z,3.60
2017-12-19T23:36:38.283Z,3.60
2017-12-19T23:39:04.953Z,3.60
2017-12-19T23:41:31.972Z,3.60
2017-12-19T23:43:58.535Z,3.70
2017-12-19T23:46:25.149Z,3.60
2017-12-19T23:48:51.629Z,3.60
2017-12-19T23:51:18.317Z,3.70
2017-12-19T23:53:44.892Z,3.60
2017-12-19T23:56:12.306Z,3.60
2017-12-19T23:58:38.877Z,3.60
